Latest Weather Observations for St Kilda Harbour RMYS

IDV60901

Issued at 10:51 am EST Friday 31 July 2015 (issued every 10 minutes, with the page automatically refreshed every 10 minutes)

About weather observations | Map of Melbourne area stations | Latest observations for Melbourne area | Other Formats
Station Details ID: 086220 Name: ST KILDA HARBOUR - RMYS Lat: -37.86 Lon: 144.96 Height: 6.4 m
Data from the previous 72 hours. | See also: Recent months for locations in Victoria
Date/Time
EST
Tmp

°C
App
Tmp
°C
Dew
Point
°C
Rel
Hum
%
Delta-T

°C
Wind Press
QNH
hPa
Press
MSL
hPa
Rain
since
9 am
mm
Dir
 
Spd
km/h
Gust
km/h
Spd
kts
Gust
kts
31/10:30am - - - - - NW 11 15 6 8 - - -
31/10:00am - - - - - NNW 9 15 5 8 - - -
31/09:30am - - - - - NNE 9 15 5 8 - - -
31/09:00am - - - - - N 11 15 6 8 - - -
31/08:30am - - - - - NNW 9 13 5 7 - - -
31/08:00am - - - - - NNW 11 15 6 8 - - -
31/07:30am - - - - - N 9 11 5 6 - - -
31/07:00am - - - - - N 6 9 3 5 - - -
31/06:30am - - - - - N 7 9 4 5 - - -
31/06:00am - - - - - N 6 9 3 5 - - -
31/05:30am - - - - - NW 11 15 6 8 - - -
31/05:00am - - - - - NNW 9 11 5 6 - - -
31/04:30am - - - - - N 6 9 3 5 - - -
31/04:00am - - - - - NNW 7 13 4 7 - - -
31/03:30am - - - - - W 19 22 10 12 - - -
31/03:00am - - - - - W 19 20 10 11 - - -
31/02:30am - - - - - W 24 30 13 16 - - -
31/02:00am - - - - - W 24 30 13 16 - - -
31/01:30am - - - - - WNW 17 22 9 12 - - -
31/01:00am - - - - - WNW 19 24 10 13 - - -
31/12:30am - - - - - WNW 15 19 8 10 - - -
31/12:00am - - - - - WNW 19 22 10 12 - - -
 
Date/Time
EST
Tmp

°C
App
Tmp
°C
Dew
Point
°C
Rel
Hum
%
Delta-T

°C
Wind Press
QNH
hPa
Press
MSL
hPa
Rain
since
9 am
mm
Dir
 
Spd
km/h
Gust
km/h
Spd
kts
Gust
kts
30/11:30pm - - - - - WNW 22 32 12 17 - - -
30/11:00pm - - - - - WNW 19 22 10 12 - - -
30/10:30pm - - - - - NW 17 20 9 11 - - -
30/10:00pm - - - - - NW 22 28 12 15 - - -
30/09:30pm - - - - - NW 30 37 16 20 - - -
30/09:00pm - - - - - NNW 28 41 15 22 - - -
30/08:30pm - - - - - NNW 39 52 21 28 - - -
30/08:17pm - - - - - NNW 41 59 22 32 - - -
30/08:00pm - - - - - NNW 48 61 26 33 - - -
30/07:30pm - - - - - NNW 50 80 27 43 - - -
30/07:00pm - - - - - NNW 52 76 28 41 - - -
30/06:30pm - - - - - NNW 48 69 26 37 - - -
30/06:00pm - - - - - NNW 50 78 27 42 - - -
30/05:30pm - - - - - NNW 48 74 26 40 - - -
30/05:02pm - - - - - N 41 69 22 37 - - -
30/05:00pm - - - - - N 41 57 22 31 - - -
30/04:30pm - - - - - N 43 63 23 34 - - -
30/04:00pm - - - - - N 39 65 21 35 - - -
30/03:30pm - - - - - N 39 65 21 35 - - -
30/03:00pm - - - - - N 37 59 20 32 - - -
30/02:45pm - - - - - N 35 63 19 34 - - -
30/02:30pm - - - - - N 35 50 19 27 - - -
30/02:00pm - - - - - N 33 54 18 29 - - -
30/01:31pm - - - - - N 41 61 22 33 - - -
30/01:30pm - - - - - N 41 57 22 31 - - -
30/01:02pm - - - - - N 35 57 19 31 - - -
30/01:00pm - - - - - N 37 50 20 27 - - -
30/12:30pm - - - - - N 35 54 19 29 - - -
30/12:00pm - - - - - N 37 59 20 32 - - -
30/11:30am - - - - - N 41 65 22 35 - - -
30/11:00am - - - - - N 35 57 19 31 - - -
30/10:30am - - - - - N 37 63 20 34 - - -
30/10:00am - - - - - N 33 56 18 30 - - -
30/09:30am - - - - - N 41 61 22 33 - - -
30/09:07am - - - - - N 33 54 18 29 - - -
30/09:00am - - - - - N 35 52 19 28 - - -
30/08:31am - - - - - N 44 69 24 37 - - -
30/08:30am - - - - - N 44 69 24 37 - - -
30/08:28am - - - - - N 41 69 22 37 - - -
30/08:04am - - - - - N 28 46 15 25 - - -
30/08:00am - - - - - N 26 39 14 21 - - -
30/07:30am - - - - - N 28 39 15 21 - - -
30/07:00am - - - - - N 39 61 21 33 - - -
30/06:30am - - - - - N 32 52 17 28 - - -
30/06:00am - - - - - N 35 57 19 31 - - -
30/05:32am - - - - - N 28 48 15 26 - - -
30/05:30am - - - - - N 28 46 15 25 - - -
30/05:17am - - - - - N 30 48 16 26 - - -
30/05:00am - - - - - N 32 44 17 24 - - -
30/04:39am - - - - - N 30 50 16 27 - - -
30/04:30am - - - - - N 28 39 15 21 - - -
30/04:00am - - - - - N 28 39 15 21 - - -
30/03:30am - - - - - N 26 43 14 23 - - -
30/03:00am - - - - - N 26 39 14 21 - - -
30/02:30am - - - - - N 32 44 17 24 - - -
30/02:00am - - - - - N 22 35 12 19 - - -
30/01:30am - - - - - N 20 32 11 17 - - -
30/01:00am - - - - - N 22 35 12 19 - - -
30/12:30am - - - - - N 20 32 11 17 - - -
30/12:00am - - - - - N 22 33 12 18 - - -
 
Date/Time
EST
Tmp

°C
App
Tmp
°C
Dew
Point
°C
Rel
Hum
%
Delta-T

°C
Wind Press
QNH
hPa
Press
MSL
hPa
Rain
since
9 am
mm
Dir
 
Spd
km/h
Gust
km/h
Spd
kts
Gust
kts
29/11:30pm - - - - - N 24 35 13 19 - - -
29/11:00pm - - - - - N 19 30 10 16 - - -
29/10:30pm - - - - - N 19 28 10 15 - - -
29/10:00pm - - - - - N 20 30 11 16 - - -
29/09:30pm - - - - - N 20 28 11 15 - - -
29/09:00pm - - - - - N 20 32 11 17 - - -
29/08:30pm - - - - - N 20 33 11 18 - - -
29/08:00pm - - - - - N 20 35 11 19 - - -
29/07:30pm - - - - - N 20 32 11 17 - - -
29/07:00pm - - - - - N 19 28 10 15 - - -
29/06:30pm - - - - - N 20 30 11 16 - - -
29/06:00pm - - - - - N 22 35 12 19 - - -
29/05:30pm - - - - - N 17 32 9 17 - - -
29/05:00pm - - - - - N 20 35 11 19 - - -
29/04:30pm - - - - - N 22 33 12 18 - - -
29/04:00pm - - - - - N 26 39 14 21 - - -
29/03:30pm - - - - - N 22 37 12 20 - - -
29/03:00pm - - - - - N 20 37 11 20 - - -
29/02:30pm - - - - - N 22 33 12 18 - - -
29/02:00pm - - - - - NNW 24 43 13 23 - - -
29/01:30pm - - - - - NNW 26 39 14 21 - - -
29/01:00pm - - - - - NNW 28 37 15 20 - - -
29/12:30pm - - - - - NNW 26 39 14 21 - - -
29/12:00pm - - - - - NNW 20 33 11 18 - - -
29/11:30am - - - - - NNW 19 30 10 16 - - -
29/11:00am - - - - - NNW 17 22 9 12 - - -
29/10:30am - - - - - NNW 19 24 10 13 - - -
29/10:00am - - - - - NNW 15 19 8 10 - - -
29/09:30am - - - - - NNW 11 15 6 8 - - -
29/09:00am - - - - - NNE 6 9 3 5 - - -
29/08:30am - - - - - NNE 6 7 3 4 - - -
29/08:00am - - - - - NNE 7 9 4 5 - - -
29/07:30am - - - - - NNE 7 9 4 5 - - -
29/07:00am - - - - - NNE 7 9 4 5 - - -
29/06:30am - - - - - NNE 7 11 4 6 - - -
29/06:00am - - - - - NNE 7 9 4 5 - - -
29/05:30am - - - - - N 7 9 4 5 - - -
29/05:00am - - - - - NNE 6 9 3 5 - - -
29/04:30am - - - - - NNE 4 6 2 3 - - -
29/04:00am - - - - - NNE 6 9 3 5 - - -
29/03:30am - - - - - N 6 7 3 4 - - -
29/03:00am - - - - - N 7 9 4 5 - - -
29/02:30am - - - - - NNW 7 7 4 4 - - -
29/02:00am - - - - - NNW 7 11 4 6 - - -
29/01:30am - - - - - NNW 7 13 4 7 - - -
29/01:00am - - - - - N 7 11 4 6 - - -
29/12:30am - - - - - NNW 7 11 4 6 - - -
29/12:00am - - - - - WNW 7 9 4 5 - - -
 
Date/Time
EST
Tmp

°C
App
Tmp
°C
Dew
Point
°C
Rel
Hum
%
Delta-T

°C
Wind Press
QNH
hPa
Press
MSL
hPa
Rain
since
9 am
mm
Dir
 
Spd
km/h
Gust
km/h
Spd
kts
Gust
kts
28/11:30pm - - - - - WNW 7 11 4 6 - - -
28/11:00pm - - - - - WNW 7 7 4 4 - - -
28/10:30pm - - - - - W 11 13 6 7 - - -
28/10:00pm - - - - - WSW 22 26 12 14 - - -
28/09:30pm - - - - - WSW 11 20 6 11 - - -
28/09:00pm - - - - - W 4 6 2 3 - - -
28/08:30pm - - - - - NNW 2 6 1 3 - - -
28/08:00pm - - - - - NNE 6 7 3 4 - - -
28/07:30pm - - - - - N 2 2 1 1 - - -
28/07:00pm - - - - - CALM 0 2 0 1 - - -
28/06:30pm - - - - - N 4 6 2 3 - - -
28/06:00pm - - - - - SE 6 6 3 3 - - -
28/05:30pm - - - - - SSE 4 6 2 3 - - -
28/05:00pm - - - - - SSE 9 11 5 6 - - -
28/04:30pm - - - - - SSE 7 9 4 5 - - -
28/04:00pm - - - - - SSE 9 11 5 6 - - -
28/03:30pm - - - - - SSE 7 9 4 5 - - -
28/03:00pm - - - - - S 13 15 7 8 - - -
28/02:30pm - - - - - S 13 15 7 8 - - -
28/02:00pm - - - - - SSE 9 13 5 7 - - -
28/01:30pm - - - - - SSE 9 11 5 6 - - -
28/01:00pm - - - - - SSW 11 15 6 8 - - -
28/12:30pm - - - - - SSW 6 9 3 5 - - -
28/12:00pm - - - - - SW 4 6 2 3 - - -
28/11:30am - - - - - W 6 11 3 6 - - -
28/11:00am - - - - - SSE 6 7 3 4 - - -

Latest Capital City Observations: Canberra | Sydney | Melbourne | Brisbane | Adelaide | Perth | Hobart | Darwin

Other Formats:

Comma delimited format used in spreadsheet applications
http://www.bom.gov.au/fwo/IDV60901/IDV60901.95864.axf

JavaScript Object Notation format (JSON) in row-major order
http://www.bom.gov.au/fwo/IDV60901/IDV60901.95864.json